Time;durP1;ratioP1;P1;durP2;ratioP2;P2;SDS_P1;SDS_P2;PMS_P1;PMS_P2;Temp;Humidity;BMP_temperature;BMP_pressure;BME280_temperature;BME280_humidity;BME280_pressure;Samples;Min_cycle;Max_cycle;Signal;HPM_P1;HPM_P2
2023/04/07 00:00:23;;;;;;;11.70;7.67;;;6.50;99.90;;;;;;5040963;28;20532;-62
2023/04/07 00:02:50;;;;;;;19.90;7.67;;;6.50;99.90;;;;;;5033570;28;20200;-62
2023/04/07 00:05:17;;;;;;;10.97;7.70;;;6.50;99.90;;;;;;5053489;28;20263;-62
2023/04/07 00:07:44;;;;;;;12.27;8.03;;;6.40;99.90;;;;;;5048692;28;20201;-62
2023/04/07 00:10:12;;;;;;;11.30;7.33;;;6.40;99.90;;;;;;5059862;28;20220;-62
2023/04/07 00:12:39;;;;;;;11.03;7.70;;;6.40;99.90;;;;;;5033086;28;20993;-62
2023/04/07 00:15:07;;;;;;;19.47;7.60;;;6.30;99.90;;;;;;5061936;28;20428;-62
2023/04/07 00:17:34;;;;;;;12.60;7.73;;;6.40;99.90;;;;;;5053821;28;20211;-62
2023/04/07 00:20:00;;;;;;;11.67;8.03;;;6.40;99.90;;;;;;5062348;28;20249;-62
2023/04/07 00:22:28;;;;;;;11.57;7.70;;;6.30;99.90;;;;;;5042147;28;20196;-62
2023/04/07 00:24:55;;;;;;;11.73;7.73;;;6.40;99.90;;;;;;5058747;28;20283;-62
2023/04/07 00:27:23;;;;;;;12.50;7.53;;;6.40;99.90;;;;;;5060238;28;20296;-62
2023/04/07 00:29:50;;;;;;;13.33;7.43;;;6.40;99.90;;;;;;5032296;28;20235;-62
2023/04/07 00:32:16;;;;;;;11.17;7.80;;;6.30;99.90;;;;;;5055283;28;20193;-63
2023/04/07 00:34:43;;;;;;;11.97;8.07;;;6.30;99.90;;;;;;5065091;28;20208;-62
2023/04/07 00:37:10;;;;;;;12.20;7.63;;;6.30;99.90;;;;;;5054623;28;20228;-62
2023/04/07 00:39:37;;;;;;;8.83;7.20;;;6.20;99.90;;;;;;5066601;28;20307;-63
2023/04/07 00:42:04;;;;;;;14.40;7.77;;;6.20;99.90;;;;;;5067889;28;20389;-62
2023/04/07 00:44:32;;;;;;;12.17;7.90;;;6.20;99.90;;;;;;5036100;28;20208;-62
2023/04/07 00:46:59;;;;;;;12.80;8.00;;;6.20;99.90;;;;;;5049247;28;20533;-62
2023/04/07 00:49:28;;;;;;;15.63;8.43;;;6.20;99.90;;;;;;5070129;28;20207;-62
2023/04/07 00:51:55;;;;;;;15.70;8.00;;;6.20;99.90;;;;;;5053734;28;20504;-62
2023/04/07 00:54:23;;;;;;;13.40;7.83;;;6.20;99.90;;;;;;5066041;28;20840;-62
2023/04/07 00:56:50;;;;;;;13.17;8.80;;;6.20;99.90;;;;;;5059370;28;20247;-62
2023/04/07 00:59:17;;;;;;;13.77;9.03;;;6.00;99.90;;;;;;5039132;28;20265;-62
2023/04/07 01:01:53;;;;;;;11.17;7.67;;;5.90;99.90;;;;;;5056278;28;20876;-62
2023/04/07 01:04:32;;;;;;;11.13;7.60;;;5.80;1.00;;;;;;5051113;28;20210;-62
2023/04/07 01:07:06;;;;;;;13.23;8.53;;;5.80;1.00;;;;;;5059882;28;20192;-62
2023/04/07 01:09:40;;;;;;;12.23;7.97;;;5.80;1.00;;;;;;5053369;28;20528;-62
2023/04/07 01:12:15;;;;;;;13.60;8.33;;;5.80;1.00;;;;;;5058567;28;20199;-62
2023/04/07 01:14:49;;;;;;;11.10;8.03;;;5.80;1.00;;;;;;5031878;28;20203;-62
2023/04/07 01:17:19;;;;;;;9.00;7.03;;;5.80;1.00;;;;;;5053624;28;20218;-63
2023/04/07 01:19:51;;;;;;;12.97;8.17;;;5.70;1.00;;;;;;5043509;28;20224;-62
2023/04/07 01:22:23;;;;;;;13.97;8.07;;;5.70;1.00;;;;;;5064878;28;20266;-62
2023/04/07 01:25:15;;;;;;;11.20;8.00;;;5.70;1.00;;;;;;5048200;28;20203;-62
2023/04/07 01:27:49;;;;;;;13.57;8.50;;;5.70;1.00;;;;;;5058772;28;20197;-62
2023/04/07 01:30:19;;;;;;;11.57;7.93;;;5.70;1.00;;;;;;5026831;28;20220;-62
2023/04/07 01:32:50;;;;;;;11.47;7.80;;;5.70;1.00;;;;;;5058474;28;20669;-62
2023/04/07 01:35:19;;;;;;;12.03;8.17;;;5.70;1.00;;;;;;5047063;28;20357;-62
2023/04/07 01:37:47;;;;;;;12.93;8.77;;;5.70;1.00;;;;;;5059975;28;20194;-62
2023/04/07 01:40:15;;;;;;;13.67;8.17;;;5.70;1.00;;;;;;5049404;28;20230;-62
2023/04/07 01:42:42;;;;;;;13.27;7.90;;;5.80;1.00;;;;;;5055458;28;20207;-62
2023/04/07 01:45:11;;;;;;;12.00;8.13;;;5.70;1.00;;;;;;5033210;28;20631;-62
2023/04/07 01:47:40;;;;;;;10.63;7.87;;;5.70;1.00;;;;;;5057843;28;20188;-62
2023/04/07 01:50:08;;;;;;;14.30;8.20;;;5.70;1.00;;;;;;5045229;28;20200;-63
2023/04/07 01:52:36;;;;;;;12.77;8.50;;;5.60;1.00;;;;;;5058790;28;20287;-62
2023/04/07 01:55:04;;;;;;;11.80;8.20;;;5.60;1.00;;;;;;5047709;28;20223;-62
2023/04/07 01:57:30;;;;;;;16.77;9.00;;;5.60;1.00;;;;;;5058203;28;20196;-62
2023/04/07 01:59:57;;;;;;;11.70;7.90;;;5.60;1.00;;;;;;5039281;28;20273;-62
2023/04/07 02:02:24;;;;;;;13.73;8.27;;;5.60;1.00;;;;;;5042643;28;20433;-62
2023/04/07 02:04:56;;;;;;;13.47;7.63;;;5.50;1.00;;;;;;5062901;28;20206;-62
2023/04/07 02:07:30;;;;;;;11.33;7.90;;;5.60;1.00;;;;;;5048130;28;20223;-62
2023/04/07 02:10:01;;;;;;;14.20;8.73;;;5.50;1.00;;;;;;5051417;28;20585;-62
2023/04/07 02:12:30;;;;;;;18.13;8.73;;;5.50;1.00;;;;;;5060610;28;20316;-62
2023/04/07 02:14:58;;;;;;;14.17;8.33;;;5.50;1.00;;;;;;5056205;28;20206;-62
2023/04/07 02:17:28;;;;;;;13.40;8.53;;;5.50;1.00;;;;;;5027718;28;20405;-62
2023/04/07 02:19:58;;;;;;;14.97;8.40;;;5.50;1.00;;;;;;5057583;28;20231;-62
2023/04/07 02:22:25;;;;;;;15.07;7.77;;;5.50;1.00;;;;;;5044819;28;20246;-62
2023/04/07 02:24:52;;;;;;;17.57;8.10;;;5.50;1.00;;;;;;5046220;28;20200;-62
2023/04/07 02:27:19;;;;;;;10.97;7.83;;;5.50;1.00;;;;;;5052013;28;20497;-62
2023/04/07 02:29:46;;;;;;;13.27;8.03;;;5.40;1.00;;;;;;5051664;28;20687;-62
2023/04/07 02:32:13;;;;;;;15.37;8.80;;;5.40;1.00;;;;;;5023080;28;20768;-62
2023/04/07 02:34:40;;;;;;;10.53;7.97;;;5.40;1.00;;;;;;5063618;28;20219;-62
2023/04/07 02:37:09;;;;;;;11.30;7.93;;;5.40;1.00;;;;;;5050438;28;20227;-62
2023/04/07 02:39:36;;;;;;;11.57;8.73;;;5.40;1.00;;;;;;5053480;28;20217;-62
2023/04/07 02:42:02;;;;;;;18.13;7.87;;;5.30;1.00;;;;;;5055800;28;20675;-62
2023/04/07 02:44:30;;;;;;;14.83;7.50;;;5.30;1.00;;;;;;5060268;28;20503;-62
2023/04/07 02:46:57;;;;;;;11.27;8.00;;;5.30;1.00;;;;;;5042483;28;20207;-62
2023/04/07 02:49:23;;;;;;;12.37;7.50;;;5.40;1.00;;;;;;5036906;28;20292;-62
2023/04/07 02:51:50;;;;;;;14.07;7.70;;;5.40;1.00;;;;;;5060050;28;20701;-62
2023/04/07 02:54:18;;;;;;;13.33;8.17;;;5.40;1.00;;;;;;5045005;28;20410;-62
2023/04/07 02:56:45;;;;;;;10.10;7.53;;;5.30;1.00;;;;;;5050544;28;20216;-62
2023/04/07 02:59:12;;;;;;;14.37;8.30;;;5.30;1.00;;;;;;5056379;28;20201;-62
2023/04/07 03:01:39;;;;;;;10.57;7.70;;;5.30;1.00;;;;;;5054042;28;20685;-62
2023/04/07 03:04:06;;;;;;;13.50;7.87;;;5.30;1.00;;;;;;5031274;28;20207;-62
2023/04/07 03:06:33;;;;;;;11.23;7.80;;;5.20;1.00;;;;;;5061894;28;20202;-62
2023/04/07 03:09:00;;;;;;;12.43;7.43;;;5.30;1.00;;;;;;5059643;28;20195;-62
2023/04/07 03:11:28;;;;;;;11.57;7.37;;;5.20;1.00;;;;;;5042717;28;20204;-62
2023/04/07 03:13:55;;;;;;;10.07;7.33;;;5.10;1.00;;;;;;5058820;28;20192;-62
2023/04/07 03:16:22;;;;;;;14.03;7.60;;;5.10;1.00;;;;;;5061181;28;20354;-62
2023/04/07 03:18:49;;;;;;;12.57;7.80;;;5.10;1.00;;;;;;5036102;28;20219;-62
2023/04/07 03:21:16;;;;;;;9.10;7.23;;;5.10;1.00;;;;;;5061923;28;20501;-62
2023/04/07 03:23:43;;;;;;;9.57;6.80;;;5.10;1.00;;;;;;5066455;28;20215;-62
2023/04/07 03:26:09;;;;;;;11.07;7.97;;;5.00;1.00;;;;;;5050476;28;20200;-62
2023/04/07 03:28:38;;;;;;;11.00;7.67;;;5.10;1.00;;;;;;5054779;28;20227;-61
2023/04/07 03:31:05;;;;;;;12.33;8.03;;;5.00;1.00;;;;;;5062837;28;20672;-62
2023/04/07 03:33:32;;;;;;;15.80;7.87;;;4.90;1.00;;;;;;5033684;28;20212;-62
2023/04/07 03:35:58;;;;;;;10.33;7.27;;;4.90;1.00;;;;;;5068210;28;20230;-62
2023/04/07 03:38:26;;;;;;;15.00;7.43;;;4.90;1.00;;;;;;5061436;28;20196;-62
2023/04/07 03:40:53;;;;;;;13.03;7.60;;;4.90;1.00;;;;;;5049386;28;20372;-62
2023/04/07 03:43:20;;;;;;;10.13;7.83;;;4.90;1.00;;;;;;5047651;28;20498;-62
2023/04/07 03:45:49;;;;;;;14.07;7.97;;;4.90;1.00;;;;;;5063096;28;20632;-62
2023/04/07 03:48:16;;;;;;;10.20;7.03;;;4.90;1.00;;;;;;5057967;28;20418;-62
2023/04/07 03:50:43;;;;;;;15.73;7.33;;;4.80;1.00;;;;;;5034759;28;23245;-62
2023/04/07 03:53:10;;;;;;;11.30;7.83;;;4.80;1.00;;;;;;5058858;28;20547;-62
2023/04/07 03:55:37;;;;;;;8.97;7.60;;;4.80;1.00;;;;;;5052476;28;20202;-62
2023/04/07 03:58:04;;;;;;;10.87;7.97;;;4.70;1.00;;;;;;5050338;28;20196;-62
2023/04/07 04:00:32;;;;;;;11.23;8.10;;;4.80;1.00;;;;;;5056058;28;20223;-62
2023/04/07 04:03:00;;;;;;;9.47;7.77;;;4.80;1.00;;;;;;5061606;28;20189;-62
2023/04/07 04:05:27;;;;;;;9.40;7.53;;;4.70;14.40;;;;;;5032453;28;20215;-62
2023/04/07 04:07:54;;;;;;;12.30;7.73;;;4.80;33.70;;;;;;5062546;28;20238;-62
2023/04/07 04:10:21;;;;;;;10.50;7.80;;;4.70;1.00;;;;;;5049631;28;20625;-62
2023/04/07 04:12:49;;;;;;;13.17;7.43;;;4.60;5.40;;;;;;5063191;28;20828;-62
2023/04/07 04:15:16;;;;;;;13.80;7.30;;;4.60;48.60;;;;;;5048629;28;20325;-62
2023/04/07 04:17:43;;;;;;;10.30;7.63;;;4.60;99.90;;;;;;5061527;28;20192;-62
2023/04/07 04:20:11;;;;;;;11.83;7.73;;;4.60;99.90;;;;;;5056514;28;20216;-62
2023/04/07 04:22:38;;;;;;;9.77;7.63;;;4.50;99.90;;;;;;5033968;28;20205;-62
2023/04/07 04:25:05;;;;;;;9.63;7.17;;;4.50;99.90;;;;;;5058317;28;20675;-62
2023/04/07 04:27:32;;;;;;;11.40;7.87;;;4.50;99.90;;;;;;5048420;28;20211;-62
2023/04/07 04:29:59;;;;;;;11.10;8.17;;;4.50;99.90;;;;;;5056238;28;20724;-62
2023/04/07 04:32:26;;;;;;;10.57;7.47;;;4.50;99.90;;;;;;5050163;28;20571;-62
2023/04/07 04:34:53;;;;;;;11.00;7.87;;;4.50;99.90;;;;;;5059770;28;20193;-61
2023/04/07 04:37:21;;;;;;;9.30;7.13;;;4.40;99.90;;;;;;5031896;28;20234;-62
2023/04/07 04:39:48;;;;;;;11.13;8.20;;;4.40;99.90;;;;;;5061410;28;20553;-61
2023/04/07 04:42:15;;;;;;;9.73;7.60;;;4.40;99.90;;;;;;5050787;28;20594;-62
2023/04/07 04:44:43;;;;;;;10.70;7.50;;;4.30;99.90;;;;;;5058495;28;20201;-62
2023/04/07 04:47:10;;;;;;;11.37;7.80;;;4.30;99.90;;;;;;5046088;28;20207;-62
2023/04/07 04:49:37;;;;;;;9.77;7.23;;;4.30;99.90;;;;;;5064115;28;20561;-62
2023/04/07 04:52:04;;;;;;;15.80;8.37;;;4.20;99.90;;;;;;5061130;28;20993;-62
2023/04/07 04:54:32;;;;;;;10.73;7.60;;;4.20;99.90;;;;;;5032918;28;20492;-62
2023/04/07 04:57:00;;;;;;;14.43;8.33;;;4.20;99.90;;;;;;5039592;28;20733;-61
2023/04/07 04:59:27;;;;;;;14.07;7.80;;;4.10;99.90;;;;;;5059431;28;21235;-62
2023/04/07 05:01:54;;;;;;;11.50;8.53;;;4.20;1.00;;;;;;5055318;28;20227;-62
2023/04/07 05:04:21;;;;;;;9.87;7.40;;;4.20;1.00;;;;;;5048744;28;20638;-62
2023/04/07 05:06:48;;;;;;;10.27;7.67;;;4.10;99.90;;;;;;5061551;28;20199;-62
2023/04/07 05:09:15;;;;;;;13.40;8.40;;;4.10;99.90;;;;;;5032166;28;20224;-62
2023/04/07 05:11:43;;;;;;;10.20;7.93;;;4.00;1.00;;;;;;5063090;28;20681;-62
2023/04/07 05:14:10;;;;;;;11.93;8.57;;;4.10;1.00;;;;;;5046528;28;20200;-62
2023/04/07 05:16:37;;;;;;;10.60;8.37;;;4.10;1.00;;;;;;5060914;28;20204;-61
2023/04/07 05:19:03;;;;;;;11.57;7.70;;;4.00;1.00;;;;;;5049694;28;20673;-62
2023/04/07 05:21:30;;;;;;;14.40;8.23;;;4.10;1.00;;;;;;5062330;28;20228;-61
2023/04/07 05:23:57;;;;;;;11.90;8.00;;;4.10;1.00;;;;;;5052477;28;20204;-62
2023/04/07 05:26:24;;;;;;;11.97;7.20;;;4.10;1.00;;;;;;5038585;28;20311;-62
2023/04/07 05:28:53;;;;;;;11.27;8.17;;;4.00;1.00;;;;;;5051771;28;20201;-62
2023/04/07 05:31:20;;;;;;;10.03;8.03;;;4.00;1.00;;;;;;5053873;28;20407;-62
2023/04/07 05:33:47;;;;;;;13.60;8.67;;;4.00;1.00;;;;;;5058781;28;20196;-61
2023/04/07 05:36:14;;;;;;;12.63;9.03;;;4.00;1.00;;;;;;5041607;28;20617;-62
2023/04/07 05:38:41;;;;;;;13.97;8.87;;;4.10;7.40;;;;;;5059878;28;20725;-62
2023/04/07 05:41:08;;;;;;;13.00;8.20;;;4.10;1.00;;;;;;5023914;28;20895;-62
2023/04/07 05:43:35;;;;;;;11.73;8.50;;;4.10;1.00;;;;;;5057230;28;20188;-62
2023/04/07 05:46:03;;;;;;;12.43;8.50;;;4.20;1.00;;;;;;5042609;28;20804;-62
2023/04/07 05:48:30;;;;;;;12.57;8.70;;;4.20;1.00;;;;;;5055143;28;20204;-62
2023/04/07 05:50:56;;;;;;;12.67;8.93;;;4.20;1.00;;;;;;5045931;28;20441;-62
2023/04/07 05:53:23;;;;;;;10.00;7.73;;;4.20;1.00;;;;;;5061869;28;20201;-62
2023/04/07 05:55:50;;;;;;;19.63;8.70;;;4.20;1.00;;;;;;5027908;28;20219;-62
2023/04/07 05:58:17;;;;;;;13.97;8.73;;;4.30;1.00;;;;;;5058159;28;20192;-62
2023/04/07 06:00:44;;;;;;;12.07;7.63;;;4.40;1.00;;;;;;5043399;28;20220;-62
2023/04/07 06:03:12;;;;;;;11.87;8.03;;;4.50;1.00;;;;;;5059430;28;20500;-62
2023/04/07 06:05:42;;;;;;;13.07;8.90;;;4.50;1.00;;;;;;5045869;28;20204;-62
2023/04/07 06:08:09;;;;;;;16.50;7.90;;;4.50;23.60;;;;;;5023769;28;20205;-62
2023/04/07 06:10:36;;;;;;;11.47;7.80;;;4.60;65.90;;;;;;5034253;28;20551;-62
2023/04/07 06:13:03;;;;;;;12.97;8.63;;;4.60;20.90;;;;;;5048855;28;20207;-62
2023/04/07 06:15:29;;;;;;;12.53;8.20;;;4.70;1.00;;;;;;5055821;28;20204;-62
2023/04/07 06:17:56;;;;;;;11.50;8.10;;;4.70;69.80;;;;;;5063186;28;20205;-62
2023/04/07 06:20:26;;;;;;;11.37;7.77;;;4.80;1.00;;;;;;5056228;28;20536;-62
2023/04/07 06:22:53;;;;;;;11.13;8.20;;;4.80;1.00;;;;;;5054550;28;20246;-61
2023/04/07 06:25:21;;;;;;;11.40;8.70;;;4.90;1.00;;;;;;5048213;28;20200;-62
2023/04/07 06:27:47;;;;;;;11.57;8.20;;;5.00;1.00;;;;;;5053547;28;20424;-62
2023/04/07 06:30:15;;;;;;;12.13;7.93;;;5.00;1.00;;;;;;5055201;28;20649;-62
2023/04/07 06:32:42;;;;;;;11.17;8.30;;;5.10;1.00;;;;;;5053606;28;20997;-61
2023/04/07 06:35:09;;;;;;;11.43;8.20;;;5.20;1.00;;;;;;5068765;28;20189;-62
2023/04/07 06:37:38;;;;;;;10.20;8.03;;;5.30;99.90;;;;;;5053619;28;20200;-62
2023/04/07 06:40:06;;;;;;;12.40;8.00;;;5.30;99.90;;;;;;5066441;28;20196;-62
2023/04/07 06:42:32;;;;;;;10.60;7.53;;;5.40;99.90;;;;;;5033019;28;20460;-62
2023/04/07 06:44:59;;;;;;;12.00;7.60;;;5.40;99.90;;;;;;5057178;28;20199;-62
2023/04/07 06:47:27;;;;;;;11.33;7.50;;;5.50;99.90;;;;;;5058370;28;20207;-62
2023/04/07 06:49:53;;;;;;;10.40;8.27;;;5.50;87.30;;;;;;5063432;28;20566;-62
2023/04/07 06:52:20;;;;;;;9.03;7.33;;;5.60;57.50;;;;;;5063632;28;20217;-62
2023/04/07 06:54:49;;;;;;;15.50;7.53;;;5.70;27.40;;;;;;5039525;28;20205;-62
2023/04/07 06:57:16;;;;;;;10.30;6.97;;;5.80;72.00;;;;;;5032490;28;21101;-62
2023/04/07 06:59:43;;;;;;;14.00;8.27;;;5.80;34.40;;;;;;5060675;28;20252;-62
2023/04/07 07:02:09;;;;;;;10.07;7.90;;;5.90;1.00;;;;;;5025283;28;20227;-62
2023/04/07 07:04:36;;;;;;;10.63;8.00;;;6.00;1.00;;;;;;5043682;28;20343;-62
2023/04/07 07:07:03;;;;;;;13.17;8.20;;;6.10;1.00;;;;;;5044505;28;20723;-62
2023/04/07 07:09:30;;;;;;;9.83;6.83;;;6.10;1.00;;;;;;5037934;28;20234;-62
2023/04/07 07:12:00;;;;;;;12.07;7.27;;;6.20;1.00;;;;;;5056660;28;20204;-62
2023/04/07 07:14:27;;;;;;;12.13;7.20;;;6.30;1.00;;;;;;5027329;28;20552;-62
2023/04/07 07:16:55;;;;;;;9.20;7.13;;;6.40;99.90;;;;;;5044701;28;20282;-62
2023/04/07 07:19:21;;;;;;;10.60;7.60;;;6.40;99.90;;;;;;5051971;28;20200;-62
2023/04/07 07:21:48;;;;;;;10.87;7.33;;;6.50;99.90;;;;;;5047907;28;20511;-62
2023/04/07 07:24:15;;;;;;;14.43;7.97;;;6.60;99.90;;;;;;5062887;28;20207;-62
2023/04/07 07:26:43;;;;;;;10.60;6.97;;;6.70;99.90;;;;;;5048767;28;20607;-62
2023/04/07 07:29:12;;;;;;;11.00;7.00;;;6.70;99.90;;;;;;4995238;28;20498;-62
2023/04/07 07:31:39;;;;;;;8.00;6.43;;;6.80;99.90;;;;;;5048987;28;20200;-63
2023/04/07 07:34:06;;;;;;;9.33;7.17;;;6.90;99.90;;;;;;5053697;28;20388;-62
2023/04/07 07:36:33;;;;;;;10.27;7.00;;;6.90;99.90;;;;;;5051244;28;20227;-62
2023/04/07 07:39:00;;;;;;;9.93;7.20;;;7.00;99.90;;;;;;5045226;28;20200;-62
2023/04/07 07:41:27;;;;;;;10.47;7.67;;;7.00;99.90;;;;;;5015970;28;21071;-62
2023/04/07 07:43:53;;;;;;;10.23;6.77;;;7.10;99.90;;;;;;4986748;28;20674;-62
2023/04/07 07:46:23;;;;;;;10.87;7.63;;;7.20;99.90;;;;;;5049845;28;20230;-62
2023/04/07 07:48:50;;;;;;;8.60;6.87;;;7.30;99.90;;;;;;5030012;28;20435;-62
2023/04/07 07:51:17;;;;;;;8.40;6.33;;;7.30;99.90;;;;;;5052477;28;20219;-62
2023/04/07 07:53:44;;;;;;;10.80;7.77;;;7.40;99.90;;;;;;5052959;28;21378;-62
2023/04/07 07:56:11;;;;;;;11.77;7.53;;;7.50;99.90;;;;;;5052100;28;20224;-62
2023/04/07 07:58:38;;;;;;;13.30;7.23;;;7.50;15.60;;;;;;5044309;28;20197;-62
2023/04/07 08:01:05;;;;;;;11.57;7.17;;;7.60;39.50;;;;;;5049580;28;20213;-62
2023/04/07 08:03:34;;;;;;;10.70;7.33;;;7.60;1.00;;;;;;5047008;28;20207;-62
2023/04/07 08:06:01;;;;;;;9.13;7.43;;;7.70;1.00;;;;;;5042239;28;20212;-62
2023/04/07 08:08:27;;;;;;;13.27;7.83;;;7.70;1.00;;;;;;5049751;28;20204;-63
2023/04/07 08:10:54;;;;;;;10.57;6.90;;;7.80;12.40;;;;;;5050283;28;20204;-62
2023/04/07 08:13:21;;;;;;;13.23;6.93;;;7.90;1.00;;;;;;5060834;28;20203;-62
2023/04/07 08:15:48;;;;;;;8.63;6.90;;;7.90;1.00;;;;;;5016256;28;20208;-62
2023/04/07 08:18:15;;;;;;;10.90;6.93;;;7.90;1.00;;;;;;5040871;28;20220;-62
2023/04/07 08:20:43;;;;;;;11.07;7.33;;;8.00;1.00;;;;;;5028150;28;20227;-62
2023/04/07 08:23:10;;;;;;;9.97;6.83;;;8.20;1.00;;;;;;5020285;28;20672;-63
2023/04/07 08:25:39;;;;;;;10.50;6.97;;;8.30;1.00;;;;;;5045304;28;20294;-63
2023/04/07 08:28:06;;;;;;;10.33;7.10;;;8.40;1.00;;;;;;5039637;28;20257;-62
2023/04/07 08:30:34;;;;;;;9.80;7.03;;;8.30;1.00;;;;;;5005056;28;20212;-62
2023/04/07 08:33:01;;;;;;;11.80;7.40;;;8.30;1.00;;;;;;5025461;28;20232;-63
2023/04/07 08:35:28;;;;;;;9.33;6.90;;;8.30;1.00;;;;;;5025844;28;20224;-62
2023/04/07 08:37:57;;;;;;;8.80;6.43;;;8.40;1.00;;;;;;5030253;28;21328;-62
2023/04/07 08:40:24;;;;;;;10.50;6.33;;;8.50;1.00;;;;;;5047386;28;20435;-62
2023/04/07 08:42:52;;;;;;;9.47;6.33;;;8.50;1.00;;;;;;5045277;28;20250;-63
2023/04/07 08:45:22;;;;;;;11.07;6.30;;;8.60;1.00;;;;;;5045045;28;20275;-63
2023/04/07 08:47:55;;;;;;;8.07;5.60;;;8.70;1.00;;;;;;4994863;28;20223;-63
2023/04/07 08:50:26;;;;;;;10.13;6.70;;;8.80;99.90;;;;;;5054844;28;20204;-62
2023/04/07 08:52:56;;;;;;;7.37;5.73;;;9.00;99.90;;;;;;5037588;28;20716;-62
2023/04/07 08:55:24;;;;;;;10.57;6.57;;;9.10;99.90;;;;;;5046785;28;20197;-62
2023/04/07 08:57:52;;;;;;;7.37;5.77;;;9.20;99.90;;;;;;5032717;28;20243;-62
2023/04/07 09:00:20;;;;;;;8.03;5.90;;;9.20;99.90;;;;;;5034105;28;20224;-62
2023/04/07 09:02:48;;;;;;;8.53;5.97;;;9.30;99.90;;;;;;4999674;28;20685;-62
2023/04/07 09:05:15;;;;;;;8.50;6.13;;;9.40;99.90;;;;;;5037555;28;20307;-62
2023/04/07 09:07:43;;;;;;;11.40;6.33;;;9.40;99.90;;;;;;5044531;28;20200;-62
2023/04/07 09:10:11;;;;;;;8.77;5.97;;;9.50;99.90;;;;;;5034587;28;20219;-63
2023/04/07 09:12:38;;;;;;;8.48;6.05;;;9.60;99.90;;;;;;5044076;28;20221;-62
2023/04/07 09:15:07;;;;;;;8.23;6.03;;;9.60;99.90;;;;;;5026634;28;20211;-63
2023/04/07 09:17:34;;;;;;;8.43;6.03;;;9.60;99.90;;;;;;5016126;28;20232;-62
2023/04/07 09:20:01;;;;;;;8.38;6.20;;;9.70;99.90;;;;;;5044710;28;20204;-62
2023/04/07 09:22:39;;;;;;;7.32;5.68;;;9.70;99.90;;;;;;5060613;28;20235;-63
2023/04/07 09:25:15;;;;;;;11.32;6.07;;;9.70;99.90;;;;;;5043396;28;21065;-63
2023/04/07 09:27:54;;;;;;;7.53;5.68;;;9.90;99.90;;;;;;5044194;28;20717;-62
2023/04/07 09:30:22;;;;;;;10.68;5.90;;;9.90;99.90;;;;;;5043986;28;20204;-63
2023/04/07 09:32:49;;;;;;;8.63;5.95;;;10.00;99.90;;;;;;5038482;28;20330;-63
2023/04/07 09:35:17;;;;;;;7.25;5.68;;;10.00;99.90;;;;;;5039619;28;20212;-63
2023/04/07 09:37:44;;;;;;;8.50;5.65;;;10.10;99.90;;;;;;5057765;28;20200;-63
2023/04/07 09:40:11;;;;;;;8.85;6.30;;;10.20;99.90;;;;;;5045216;28;20207;-63
2023/04/07 09:42:47;;;;;;;7.80;5.97;;;10.20;99.90;;;;;;5063523;28;20227;-63
2023/04/07 09:45:24;;;;;;;8.02;6.05;;;10.20;99.90;;;;;;5039364;28;20222;-63
2023/04/07 09:47:51;;;;;;;10.35;5.80;;;10.20;76.60;;;;;;5048598;28;20343;-63
2023/04/07 09:50:33;;;;;;;7.18;5.70;;;10.20;99.90;;;;;;5017623;28;20225;-64
2023/04/07 09:53:01;;;;;;;6.55;5.35;;;10.30;80.90;;;;;;5068977;28;20525;-63
2023/04/07 09:55:29;;;;;;;11.27;5.70;;;10.30;99.90;;;;;;5035493;28;20842;-63
2023/04/07 09:57:57;;;;;;;13.05;6.30;;;10.30;77.30;;;;;;5047024;28;20235;-63
2023/04/07 10:00:25;;;;;;;7.55;5.57;;;10.30;65.80;;;;;;5048474;28;20223;-63
2023/04/07 10:02:53;;;;;;;10.73;6.07;;;10.30;52.70;;;;;;5037257;28;20231;-63
2023/04/07 10:05:21;;;;;;;9.93;5.75;;;10.30;34.60;;;;;;5009690;28;21059;-63
2023/04/07 10:07:49;;;;;;;9.00;6.07;;;10.30;11.30;;;;;;5035961;28;20241;-64
2023/04/07 10:10:16;;;;;;;6.63;5.15;;;10.30;3.70;;;;;;5050268;28;20638;-63
2023/04/07 10:12:44;;;;;;;8.00;5.80;;;10.40;1.00;;;;;;5036815;28;20221;-63
2023/04/07 10:15:14;;;;;;;10.43;5.63;;;10.50;23.10;;;;;;5050449;28;20228;-63
2023/04/07 10:17:47;;;;;;;6.85;5.47;;;10.50;1.90;;;;;;5051567;28;20272;-63
2023/04/07 10:20:17;;;;;;;10.13;5.90;;;10.60;13.20;;;;;;5020823;28;20231;-63
2023/04/07 10:22:46;;;;;;;8.88;5.68;;;10.70;17.30;;;;;;5057601;28;20237;-63
2023/04/07 10:25:17;;;;;;;8.13;5.50;;;10.70;23.80;;;;;;5072602;28;20213;-64
2023/04/07 10:27:50;;;;;;;9.18;5.63;;;10.70;1.00;;;;;;5035254;28;20696;-63
2023/04/07 10:30:23;;;;;;;10.00;5.85;;;10.90;15.70;;;;;;5051134;28;20204;-63
2023/04/07 10:32:52;;;;;;;7.25;4.93;;;10.90;1.00;;;;;;5052465;28;20205;-63
2023/04/07 10:35:20;;;;;;;9.05;5.45;;;11.00;2.30;;;;;;5060553;28;20207;-64
2023/04/07 10:38:10;;;;;;;6.47;5.18;;;11.00;1.00;;;;;;5050393;28;20220;-63
2023/04/07 10:40:38;;;;;;;11.38;5.53;;;11.00;1.00;;;;;;5057213;28;20222;-63
2023/04/07 10:43:08;;;;;;;6.82;4.88;;;11.00;6.60;;;;;;5056157;28;20251;-63
2023/04/07 10:45:58;;;;;;;7.05;5.30;;;11.00;1.00;;;;;;5052363;28;20204;-63
2023/04/07 10:48:27;;;;;;;7.13;5.20;;;11.00;1.00;;;;;;5068045;28;20298;-63
2023/04/07 10:51:14;;;;;;;6.30;4.90;;;11.10;1.00;;;;;;5068973;28;20235;-63
2023/04/07 10:54:21;;;;;;;7.13;5.35;;;11.10;1.00;;;;;;5036986;28;20214;-63
2023/04/07 10:57:12;;;;;;;11.13;5.60;;;11.20;1.00;;;;;;5056205;28;20335;-63
2023/04/07 10:59:41;;;;;;;8.05;5.18;;;11.20;1.00;;;;;;5044400;28;20435;-63
2023/04/07 11:02:35;;;;;;;7.18;5.32;;;11.30;1.00;;;;;;5064912;28;20228;-63
2023/04/07 11:05:02;;;;;;;7.47;5.93;;;11.30;1.00;;;;;;5062651;28;20196;-63
2023/04/07 11:07:58;;;;;;;9.05;5.20;;;11.40;1.00;;;;;;5034350;28;20197;-63
2023/04/07 11:10:25;;;;;;;6.40;5.03;;;11.40;1.00;;;;;;5054676;28;20830;-63
2023/04/07 11:13:06;;;;;;;7.65;5.20;;;11.50;1.00;;;;;;5055092;28;20690;-63
2023/04/07 11:15:34;;;;;;;7.45;5.45;;;11.60;1.00;;;;;;5051834;28;20228;-64
2023/04/07 11:18:13;;;;;;;8.27;5.18;;;11.60;1.00;;;;;;5065116;28;20192;-63
2023/04/07 11:20:42;;;;;;;11.43;5.53;;;11.60;1.00;;;;;;5057988;28;20297;-63
2023/04/07 11:23:09;;;;;;;6.35;4.57;;;11.60;1.00;;;;;;5033200;28;20669;-63
2023/04/07 11:25:36;;;;;;;15.27;5.65;;;11.60;1.00;;;;;;5043674;28;20427;-63
2023/04/07 11:28:04;;;;;;;11.02;5.40;;;11.60;1.00;;;;;;5051219;28;20212;-63
2023/04/07 11:30:31;;;;;;;8.02;5.10;;;11.50;1.00;;;;;;5053525;28;20803;-63
2023/04/07 11:32:58;;;;;;;9.07;5.45;;;11.60;1.00;;;;;;5067297;28;20245;-63
2023/04/07 11:35:27;;;;;;;7.95;5.28;;;11.60;1.00;;;;;;5060617;28;20227;-63
2023/04/07 11:37:58;;;;;;;6.90;5.32;;;11.60;1.00;;;;;;5034174;28;20363;-63
2023/04/07 11:40:33;;;;;;;8.13;4.88;;;11.60;1.00;;;;;;5069108;28;20204;-63
2023/04/07 11:43:00;;;;;;;7.90;4.95;;;11.60;1.00;;;;;;5053856;28;20436;-63
2023/04/07 11:45:27;;;;;;;8.13;5.43;;;11.70;1.00;;;;;;5069436;28;20200;-63
2023/04/07 11:47:54;;;;;;;7.10;5.05;;;11.80;1.00;;;;;;5024225;28;20204;-63
2023/04/07 11:50:41;;;;;;;8.02;5.80;;;11.80;1.00;;;;;;5048665;28;20196;-63
2023/04/07 11:53:08;;;;;;;6.75;5.30;;;11.90;1.00;;;;;;5040714;28;20255;-63
2023/04/07 11:55:35;;;;;;;6.70;5.45;;;11.90;1.00;;;;;;5053270;28;20681;-63
2023/04/07 11:58:09;;;;;;;5.90;4.75;;;11.90;1.00;;;;;;5028030;28;20305;-63
2023/04/07 12:00:37;;;;;;;10.60;5.25;;;12.00;1.00;;;;;;5053421;28;20574;-63
2023/04/07 12:03:12;;;;;;;13.35;5.20;;;12.00;1.00;;;;;;5033100;28;21149;-63
2023/04/07 12:05:44;;;;;;;9.23;5.80;;;12.10;1.00;;;;;;5061021;28;20189;-63
2023/04/07 12:08:11;;;;;;;9.25;5.65;;;12.00;1.00;;;;;;5036587;28;20452;-63
2023/04/07 12:10:39;;;;;;;7.80;5.25;;;12.00;1.00;;;;;;5064868;28;20207;-63
2023/04/07 12:13:07;;;;;;;7.68;5.25;;;12.00;1.00;;;;;;5048284;28;20557;-63
2023/04/07 12:15:34;;;;;;;7.88;5.40;;;12.10;1.00;;;;;;5055484;28;20204;-64
2023/04/07 12:18:01;;;;;;;10.30;5.57;;;12.10;1.00;;;;;;5037548;28;20390;-63
2023/04/07 12:20:28;;;;;;;8.20;5.47;;;12.20;1.00;;;;;;5017478;28;20369;-63
2023/04/07 12:22:56;;;;;;;9.10;6.07;;;12.20;1.00;;;;;;5029541;28;20220;-63
2023/04/07 12:25:23;;;;;;;9.20;5.43;;;12.20;1.00;;;;;;5038846;28;21360;-63
2023/04/07 12:27:50;;;;;;;8.95;5.80;;;12.20;1.00;;;;;;5061035;28;20196;-63
2023/04/07 12:30:17;;;;;;;7.82;5.32;;;12.20;1.00;;;;;;5052320;28;20208;-63
2023/04/07 12:32:44;;;;;;;7.75;5.80;;;12.30;1.00;;;;;;5031827;28;20553;-63
2023/04/07 12:35:11;;;;;;;9.68;6.20;;;12.20;1.00;;;;;;5061300;28;20224;-63
2023/04/07 12:37:38;;;;;;;7.60;5.45;;;12.30;1.00;;;;;;5061760;28;20215;-63
2023/04/07 12:40:07;;;;;;;9.50;5.70;;;12.30;1.00;;;;;;5025353;28;20235;-63
2023/04/07 12:42:34;;;;;;;7.43;5.05;;;12.30;1.00;;;;;;5068559;28;20188;-63
2023/04/07 12:45:02;;;;;;;6.57;4.78;;;12.30;1.00;;;;;;5058247;28;20204;-63
2023/04/07 12:47:28;;;;;;;11.43;5.13;;;12.40;1.00;;;;;;5056378;28;20194;-63
2023/04/07 12:49:55;;;;;;;7.13;4.53;;;12.30;1.00;;;;;;5056544;28;20247;-63
2023/04/07 12:52:22;;;;;;;7.80;4.72;;;12.30;1.00;;;;;;5070032;28;20215;-63
2023/04/07 12:54:49;;;;;;;6.78;4.50;;;12.30;1.00;;;;;;5005725;28;21066;-63
2023/04/07 12:57:17;;;;;;;5.72;4.82;;;12.30;1.00;;;;;;5065153;28;20200;-63
2023/04/07 12:59:44;;;;;;;7.47;4.55;;;12.30;1.00;;;;;;5052078;28;20652;-63